sensor_id;sensor_type;location;lat;lon;timestamp;temperature;humidity
6540;DHT22;50344;51.142;16.892;2023-12-20T00:01:45;22.70;67.60
6540;DHT22;50344;51.142;16.892;2023-12-20T00:04:11;22.70;67.40
6540;DHT22;50344;51.142;16.892;2023-12-20T00:06:36;22.60;67.80
6540;DHT22;50344;51.142;16.892;2023-12-20T00:09:02;22.70;67.20
6540;DHT22;50344;51.142;16.892;2023-12-20T00:11:27;22.70;67.30
6540;DHT22;50344;51.142;16.892;2023-12-20T00:13:53;22.70;67.20
6540;DHT22;50344;51.142;16.892;2023-12-20T00:16:18;22.70;67.10
6540;DHT22;50344;51.142;16.892;2023-12-20T00:18:44;22.70;66.90
6540;DHT22;50344;51.142;16.892;2023-12-20T00:21:09;22.70;67.10
6540;DHT22;50344;51.142;16.892;2023-12-20T00:23:35;22.70;67.40
6540;DHT22;50344;51.142;16.892;2023-12-20T00:26:00;22.70;67.50
6540;DHT22;50344;51.142;16.892;2023-12-20T00:28:26;22.70;67.10
6540;DHT22;50344;51.142;16.892;2023-12-20T00:30:51;22.70;67.30
6540;DHT22;50344;51.142;16.892;2023-12-20T00:33:17;22.70;67.30
6540;DHT22;50344;51.142;16.892;2023-12-20T00:35:43;22.70;67.20
6540;DHT22;50344;51.142;16.892;2023-12-20T00:38:08;22.70;67.60
6540;DHT22;50344;51.142;16.892;2023-12-20T00:40:34;22.70;67.80
6540;DHT22;50344;51.142;16.892;2023-12-20T00:43:00;22.70;67.30
6540;DHT22;50344;51.142;16.892;2023-12-20T00:45:25;22.70;67.20
6540;DHT22;50344;51.142;16.892;2023-12-20T00:47:51;22.70;67.00
6540;DHT22;50344;51.142;16.892;2023-12-20T00:50:17;22.70;67.40
6540;DHT22;50344;51.142;16.892;2023-12-20T00:52:42;22.70;67.10
6540;DHT22;50344;51.142;16.892;2023-12-20T00:55:08;22.70;67.10
6540;DHT22;50344;51.142;16.892;2023-12-20T00:57:33;22.80;67.40
6540;DHT22;50344;51.142;16.892;2023-12-20T00:59:59;22.70;67.40
6540;DHT22;50344;51.142;16.892;2023-12-20T01:02:24;22.70;67.10
6540;DHT22;50344;51.142;16.892;2023-12-20T01:04:50;22.70;67.10
6540;DHT22;50344;51.142;16.892;2023-12-20T01:07:15;22.70;67.00
6540;DHT22;50344;51.142;16.892;2023-12-20T01:09:41;22.70;67.10
6540;DHT22;50344;51.142;16.892;2023-12-20T01:12:07;22.70;66.80
6540;DHT22;50344;51.142;16.892;2023-12-20T01:14:32;22.70;66.90
6540;DHT22;50344;51.142;16.892;2023-12-20T01:16:58;22.70;67.30
6540;DHT22;50344;51.142;16.892;2023-12-20T01:19:24;22.70;66.90
6540;DHT22;50344;51.142;16.892;2023-12-20T01:21:50;22.70;66.80
6540;DHT22;50344;51.142;16.892;2023-12-20T01:24:15;22.70;66.90
6540;DHT22;50344;51.142;16.892;2023-12-20T01:26:41;22.70;66.90
6540;DHT22;50344;51.142;16.892;2023-12-20T01:29:06;22.70;67.00
6540;DHT22;50344;51.142;16.892;2023-12-20T01:31:32;22.70;67.80
6540;DHT22;50344;51.142;16.892;2023-12-20T01:33:57;22.70;67.10
6540;DHT22;50344;51.142;16.892;2023-12-20T01:36:23;22.70;67.40
6540;DHT22;50344;51.142;16.892;2023-12-20T01:38:48;22.70;67.30
6540;DHT22;50344;51.142;16.892;2023-12-20T01:41:14;22.70;67.30
6540;DHT22;50344;51.142;16.892;2023-12-20T01:43:40;22.70;67.40
6540;DHT22;50344;51.142;16.892;2023-12-20T01:46:05;22.70;67.50
6540;DHT22;50344;51.142;16.892;2023-12-20T01:48:31;22.70;67.70
6540;DHT22;50344;51.142;16.892;2023-12-20T01:50:58;22.70;67.40
6540;DHT22;50344;51.142;16.892;2023-12-20T01:53:24;22.80;67.70
6540;DHT22;50344;51.142;16.892;2023-12-20T01:55:50;22.70;67.60
6540;DHT22;50344;51.142;16.892;2023-12-20T01:58:17;22.70;67.40
6540;DHT22;50344;51.142;16.892;2023-12-20T02:00:44;22.70;67.50
6540;DHT22;50344;51.142;16.892;2023-12-20T02:03:09;22.70;67.30
6540;DHT22;50344;51.142;16.892;2023-12-20T02:05:35;22.70;67.00
6540;DHT22;50344;51.142;16.892;2023-12-20T02:08:02;22.70;67.20
6540;DHT22;50344;51.142;16.892;2023-12-20T02:10:27;22.70;68.00
6540;DHT22;50344;51.142;16.892;2023-12-20T02:12:54;22.70;67.50
6540;DHT22;50344;51.142;16.892;2023-12-20T02:15:20;22.70;67.40
6540;DHT22;50344;51.142;16.892;2023-12-20T02:17:46;22.70;67.60
6540;DHT22;50344;51.142;16.892;2023-12-20T02:20:12;22.70;67.70
6540;DHT22;50344;51.142;16.892;2023-12-20T02:22:37;22.70;67.60
6540;DHT22;50344;51.142;16.892;2023-12-20T02:25:03;22.70;68.00
6540;DHT22;50344;51.142;16.892;2023-12-20T02:27:28;22.70;67.90
6540;DHT22;50344;51.142;16.892;2023-12-20T02:29:54;22.70;67.80
6540;DHT22;50344;51.142;16.892;2023-12-20T02:32:20;22.70;67.80
6540;DHT22;50344;51.142;16.892;2023-12-20T02:34:47;22.70;67.90
6540;DHT22;50344;51.142;16.892;2023-12-20T02:37:13;22.70;68.00
6540;DHT22;50344;51.142;16.892;2023-12-20T02:39:38;22.70;68.30
6540;DHT22;50344;51.142;16.892;2023-12-20T02:42:04;22.70;67.80
6540;DHT22;50344;51.142;16.892;2023-12-20T02:44:29;22.70;68.20
6540;DHT22;50344;51.142;16.892;2023-12-20T02:46:55;22.70;68.40
6540;DHT22;50344;51.142;16.892;2023-12-20T02:49:20;22.70;68.10
6540;DHT22;50344;51.142;16.892;2023-12-20T02:51:46;22.70;67.90
6540;DHT22;50344;51.142;16.892;2023-12-20T02:54:12;22.70;68.40
6540;DHT22;50344;51.142;16.892;2023-12-20T02:56:37;22.70;68.00
6540;DHT22;50344;51.142;16.892;2023-12-20T02:59:03;22.70;68.10
6540;DHT22;50344;51.142;16.892;2023-12-20T03:01:31;22.70;68.40
6540;DHT22;50344;51.142;16.892;2023-12-20T03:03:56;22.70;67.90
6540;DHT22;50344;51.142;16.892;2023-12-20T03:06:22;22.70;68.10
6540;DHT22;50344;51.142;16.892;2023-12-20T03:08:48;22.70;68.50
6540;DHT22;50344;51.142;16.892;2023-12-20T03:11:13;22.70;68.40
6540;DHT22;50344;51.142;16.892;2023-12-20T03:13:39;22.70;68.80
6540;DHT22;50344;51.142;16.892;2023-12-20T03:16:08;22.70;69.00
6540;DHT22;50344;51.142;16.892;2023-12-20T03:18:33;22.70;67.40
6540;DHT22;50344;51.142;16.892;2023-12-20T03:20:59;22.70;68.40
6540;DHT22;50344;51.142;16.892;2023-12-20T03:23:24;22.70;68.50
6540;DHT22;50344;51.142;16.892;2023-12-20T03:25:51;22.70;67.90
6540;DHT22;50344;51.142;16.892;2023-12-20T03:28:17;22.70;68.10
6540;DHT22;50344;51.142;16.892;2023-12-20T03:30:42;22.70;67.90
6540;DHT22;50344;51.142;16.892;2023-12-20T03:33:08;22.70;68.00
6540;DHT22;50344;51.142;16.892;2023-12-20T03:35:33;22.70;67.90
6540;DHT22;50344;51.142;16.892;2023-12-20T03:37:59;22.80;68.50
6540;DHT22;50344;51.142;16.892;2023-12-20T03:40:25;22.70;68.10
6540;DHT22;50344;51.142;16.892;2023-12-20T03:42:51;22.70;67.80
6540;DHT22;50344;51.142;16.892;2023-12-20T03:45:16;22.70;68.10
6540;DHT22;50344;51.142;16.892;2023-12-20T03:47:42;22.70;68.00
6540;DHT22;50344;51.142;16.892;2023-12-20T03:50:07;22.70;68.20
6540;DHT22;50344;51.142;16.892;2023-12-20T03:52:33;22.70;68.20
6540;DHT22;50344;51.142;16.892;2023-12-20T03:54:58;22.70;68.00
6540;DHT22;50344;51.142;16.892;2023-12-20T03:57:24;22.70;68.50
6540;DHT22;50344;51.142;16.892;2023-12-20T03:59:49;22.70;68.60
6540;DHT22;50344;51.142;16.892;2023-12-20T04:02:15;22.70;68.50
6540;DHT22;50344;51.142;16.892;2023-12-20T04:04:41;22.70;68.30
6540;DHT22;50344;51.142;16.892;2023-12-20T04:07:07;22.60;68.00
6540;DHT22;50344;51.142;16.892;2023-12-20T04:09:32;22.70;68.20
6540;DHT22;50344;51.142;16.892;2023-12-20T04:11:58;22.80;68.40
6540;DHT22;50344;51.142;16.892;2023-12-20T04:14:23;22.70;68.40
6540;DHT22;50344;51.142;16.892;2023-12-20T04:16:50;22.70;68.80
6540;DHT22;50344;51.142;16.892;2023-12-20T04:19:15;22.70;68.80
6540;DHT22;50344;51.142;16.892;2023-12-20T04:21:41;22.70;69.90
6540;DHT22;50344;51.142;16.892;2023-12-20T04:24:06;22.70;69.10
6540;DHT22;50344;51.142;16.892;2023-12-20T04:26:32;22.70;68.70
6540;DHT22;50344;51.142;16.892;2023-12-20T04:28:57;22.70;69.20
6540;DHT22;50344;51.142;16.892;2023-12-20T04:31:23;22.60;68.90
6540;DHT22;50344;51.142;16.892;2023-12-20T04:33:49;22.70;68.90
6540;DHT22;50344;51.142;16.892;2023-12-20T04:36:14;22.70;69.00
6540;DHT22;50344;51.142;16.892;2023-12-20T04:38:40;22.70;68.70
6540;DHT22;50344;51.142;16.892;2023-12-20T04:41:05;22.60;68.80
6540;DHT22;50344;51.142;16.892;2023-12-20T04:43:31;22.70;68.50
6540;DHT22;50344;51.142;16.892;2023-12-20T04:45:56;22.70;68.00
6540;DHT22;50344;51.142;16.892;2023-12-20T04:48:22;22.70;68.00
6540;DHT22;50344;51.142;16.892;2023-12-20T04:50:47;22.70;68.10
6540;DHT22;50344;51.142;16.892;2023-12-20T04:53:13;22.70;67.70
6540;DHT22;50344;51.142;16.892;2023-12-20T04:55:38;22.70;67.90
6540;DHT22;50344;51.142;16.892;2023-12-20T04:58:04;22.70;68.40
6540;DHT22;50344;51.142;16.892;2023-12-20T05:00:30;22.60;68.20
6540;DHT22;50344;51.142;16.892;2023-12-20T05:02:55;22.70;68.50
6540;DHT22;50344;51.142;16.892;2023-12-20T05:05:21;22.70;68.60
6540;DHT22;50344;51.142;16.892;2023-12-20T05:07:46;22.70;68.30
6540;DHT22;50344;51.142;16.892;2023-12-20T05:10:12;22.70;68.30
6540;DHT22;50344;51.142;16.892;2023-12-20T05:12:37;22.70;68.70
6540;DHT22;50344;51.142;16.892;2023-12-20T05:15:03;22.70;68.90
6540;DHT22;50344;51.142;16.892;2023-12-20T05:17:29;22.70;68.70
6540;DHT22;50344;51.142;16.892;2023-12-20T05:19:54;22.60;69.20
6540;DHT22;50344;51.142;16.892;2023-12-20T05:22:20;22.70;69.30
6540;DHT22;50344;51.142;16.892;2023-12-20T05:24:45;22.60;69.30
6540;DHT22;50344;51.142;16.892;2023-12-20T05:27:11;22.60;68.90
6540;DHT22;50344;51.142;16.892;2023-12-20T05:29:37;22.60;69.00
6540;DHT22;50344;51.142;16.892;2023-12-20T05:32:02;22.60;69.20
6540;DHT22;50344;51.142;16.892;2023-12-20T05:34:30;22.70;69.60
6540;DHT22;50344;51.142;16.892;2023-12-20T05:36:55;22.60;69.90
6540;DHT22;50344;51.142;16.892;2023-12-20T05:39:21;22.70;70.00
6540;DHT22;50344;51.142;16.892;2023-12-20T05:41:47;22.60;69.50
6540;DHT22;50344;51.142;16.892;2023-12-20T05:44:13;22.60;69.70
6540;DHT22;50344;51.142;16.892;2023-12-20T05:46:38;22.70;70.00
6540;DHT22;50344;51.142;16.892;2023-12-20T05:49:05;22.70;69.40
6540;DHT22;50344;51.142;16.892;2023-12-20T05:51:31;22.70;70.10
6540;DHT22;50344;51.142;16.892;2023-12-20T05:53:56;22.60;70.30
6540;DHT22;50344;51.142;16.892;2023-12-20T05:56:22;22.70;70.40
6540;DHT22;50344;51.142;16.892;2023-12-20T05:58:47;22.70;70.60
6540;DHT22;50344;51.142;16.892;2023-12-20T06:01:14;22.70;70.30
6540;DHT22;50344;51.142;16.892;2023-12-20T06:03:41;22.70;70.70
6540;DHT22;50344;51.142;16.892;2023-12-20T06:06:06;22.60;71.30
6540;DHT22;50344;51.142;16.892;2023-12-20T06:08:32;22.60;71.10
6540;DHT22;50344;51.142;16.892;2023-12-20T06:10:58;22.60;70.90
6540;DHT22;50344;51.142;16.892;2023-12-20T06:13:23;22.70;72.80
6540;DHT22;50344;51.142;16.892;2023-12-20T06:15:49;22.70;71.40
6540;DHT22;50344;51.142;16.892;2023-12-20T06:18:14;22.70;69.70
6540;DHT22;50344;51.142;16.892;2023-12-20T06:20:40;22.70;67.10
6540;DHT22;50344;51.142;16.892;2023-12-20T06:23:05;22.60;66.70
6540;DHT22;50344;51.142;16.892;2023-12-20T06:25:31;22.70;66.40
6540;DHT22;50344;51.142;16.892;2023-12-20T06:27:56;22.60;66.30
6540;DHT22;50344;51.142;16.892;2023-12-20T06:30:22;22.60;65.10
6540;DHT22;50344;51.142;16.892;2023-12-20T06:32:48;22.70;65.30
6540;DHT22;50344;51.142;16.892;2023-12-20T06:35:13;22.70;65.30
6540;DHT22;50344;51.142;16.892;2023-12-20T06:37:39;22.70;65.10
6540;DHT22;50344;51.142;16.892;2023-12-20T06:40:08;22.70;65.20
6540;DHT22;50344;51.142;16.892;2023-12-20T06:42:34;22.60;64.70
6540;DHT22;50344;51.142;16.892;2023-12-20T06:44:59;22.60;65.80
6540;DHT22;50344;51.142;16.892;2023-12-20T06:47:25;22.60;65.50
6540;DHT22;50344;51.142;16.892;2023-12-20T06:49:51;22.70;65.70
6540;DHT22;50344;51.142;16.892;2023-12-20T06:52:17;22.60;65.20
6540;DHT22;50344;51.142;16.892;2023-12-20T06:54:42;22.70;65.40
6540;DHT22;50344;51.142;16.892;2023-12-20T06:57:08;22.70;65.80
6540;DHT22;50344;51.142;16.892;2023-12-20T06:59:40;22.70;65.60
6540;DHT22;50344;51.142;16.892;2023-12-20T07:02:06;22.70;64.70
6540;DHT22;50344;51.142;16.892;2023-12-20T07:04:32;22.60;65.00
6540;DHT22;50344;51.142;16.892;2023-12-20T07:06:57;22.70;65.40
6540;DHT22;50344;51.142;16.892;2023-12-20T07:09:25;22.60;65.00
6540;DHT22;50344;51.142;16.892;2023-12-20T07:11:51;22.60;65.30
6540;DHT22;50344;51.142;16.892;2023-12-20T07:14:17;22.60;64.90
6540;DHT22;50344;51.142;16.892;2023-12-20T07:16:42;22.60;64.90
6540;DHT22;50344;51.142;16.892;2023-12-20T07:19:08;22.60;65.40
6540;DHT22;50344;51.142;16.892;2023-12-20T07:21:34;22.60;65.00
6540;DHT22;50344;51.142;16.892;2023-12-20T07:23:59;22.60;65.30
6540;DHT22;50344;51.142;16.892;2023-12-20T07:26:25;22.50;65.30
6540;DHT22;50344;51.142;16.892;2023-12-20T07:28:50;22.50;65.40
6540;DHT22;50344;51.142;16.892;2023-12-20T07:31:16;22.50;65.50
6540;DHT22;50344;51.142;16.892;2023-12-20T07:33:41;22.50;65.00
6540;DHT22;50344;51.142;16.892;2023-12-20T07:36:07;22.50;65.20
6540;DHT22;50344;51.142;16.892;2023-12-20T07:38:33;22.50;65.00
6540;DHT22;50344;51.142;16.892;2023-12-20T07:40:58;22.50;64.90
6540;DHT22;50344;51.142;16.892;2023-12-20T07:43:24;22.50;65.10
6540;DHT22;50344;51.142;16.892;2023-12-20T07:45:49;22.50;65.20
6540;DHT22;50344;51.142;16.892;2023-12-20T07:48:16;22.50;64.80
6540;DHT22;50344;51.142;16.892;2023-12-20T07:50:42;22.50;64.80
6540;DHT22;50344;51.142;16.892;2023-12-20T07:53:08;22.40;64.70
6540;DHT22;50344;51.142;16.892;2023-12-20T07:55:33;22.40;64.80
6540;DHT22;50344;51.142;16.892;2023-12-20T07:57:59;22.50;65.00
6540;DHT22;50344;51.142;16.892;2023-12-20T08:00:25;22.50;64.80
6540;DHT22;50344;51.142;16.892;2023-12-20T08:02:51;22.40;64.80
6540;DHT22;50344;51.142;16.892;2023-12-20T08:05:16;22.50;65.10
6540;DHT22;50344;51.142;16.892;2023-12-20T08:07:42;22.50;65.10
6540;DHT22;50344;51.142;16.892;2023-12-20T08:10:07;22.50;64.80
6540;DHT22;50344;51.142;16.892;2023-12-20T08:12:33;22.50;65.00
6540;DHT22;50344;51.142;16.892;2023-12-20T08:14:59;22.50;65.30
6540;DHT22;50344;51.142;16.892;2023-12-20T08:17:25;22.50;65.30
6540;DHT22;50344;51.142;16.892;2023-12-20T08:19:50;22.50;65.50
6540;DHT22;50344;51.142;16.892;2023-12-20T08:22:16;22.50;65.90
6540;DHT22;50344;51.142;16.892;2023-12-20T08:24:41;22.60;66.10
6540;DHT22;50344;51.142;16.892;2023-12-20T08:27:07;22.60;66.10
6540;DHT22;50344;51.142;16.892;2023-12-20T08:29:33;22.50;66.20
6540;DHT22;50344;51.142;16.892;2023-12-20T08:31:58;22.50;65.90
6540;DHT22;50344;51.142;16.892;2023-12-20T08:34:24;22.60;66.20
6540;DHT22;50344;51.142;16.892;2023-12-20T08:36:50;22.50;66.00
6540;DHT22;50344;51.142;16.892;2023-12-20T08:39:16;22.50;66.00
6540;DHT22;50344;51.142;16.892;2023-12-20T08:41:42;22.50;66.30
6540;DHT22;50344;51.142;16.892;2023-12-20T08:44:08;22.50;66.10
6540;DHT22;50344;51.142;16.892;2023-12-20T08:46:33;22.60;66.60
6540;DHT22;50344;51.142;16.892;2023-12-20T08:48:59;22.50;66.50
6540;DHT22;50344;51.142;16.892;2023-12-20T08:51:25;22.50;66.00
6540;DHT22;50344;51.142;16.892;2023-12-20T08:53:51;22.50;66.10
6540;DHT22;50344;51.142;16.892;2023-12-20T08:56:17;22.50;66.60
6540;DHT22;50344;51.142;16.892;2023-12-20T08:58:43;22.50;66.50
6540;DHT22;50344;51.142;16.892;2023-12-20T09:01:09;22.50;66.50
6540;DHT22;50344;51.142;16.892;2023-12-20T09:03:34;22.50;66.70
6540;DHT22;50344;51.142;16.892;2023-12-20T09:06:00;22.50;66.30
6540;DHT22;50344;51.142;16.892;2023-12-20T09:08:25;22.60;66.50
6540;DHT22;50344;51.142;16.892;2023-12-20T09:10:51;22.50;66.40
6540;DHT22;50344;51.142;16.892;2023-12-20T09:13:16;22.50;66.70
6540;DHT22;50344;51.142;16.892;2023-12-20T09:15:42;22.50;66.80
6540;DHT22;50344;51.142;16.892;2023-12-20T09:18:07;22.50;66.80
6540;DHT22;50344;51.142;16.892;2023-12-20T09:20:33;22.50;66.90
6540;DHT22;50344;51.142;16.892;2023-12-20T09:22:59;22.50;66.90
6540;DHT22;50344;51.142;16.892;2023-12-20T09:25:25;22.50;67.60
6540;DHT22;50344;51.142;16.892;2023-12-20T09:27:51;22.40;67.30
6540;DHT22;50344;51.142;16.892;2023-12-20T09:30:17;22.50;67.60
6540;DHT22;50344;51.142;16.892;2023-12-20T09:32:43;22.50;67.90
6540;DHT22;50344;51.142;16.892;2023-12-20T09:35:08;22.50;67.90
6540;DHT22;50344;51.142;16.892;2023-12-20T09:37:34;22.60;68.50
6540;DHT22;50344;51.142;16.892;2023-12-20T09:40:00;22.60;68.50
6540;DHT22;50344;51.142;16.892;2023-12-20T09:45:00;22.70;68.50
6540;DHT22;50344;51.142;16.892;2023-12-20T09:47:27;22.70;69.70
6540;DHT22;50344;51.142;16.892;2023-12-20T09:49:52;22.70;69.90
6540;DHT22;50344;51.142;16.892;2023-12-20T09:52:18;22.70;70.30
6540;DHT22;50344;51.142;16.892;2023-12-20T09:54:44;22.70;71.20
6540;DHT22;50344;51.142;16.892;2023-12-20T09:57:10;22.60;70.70
6540;DHT22;50344;51.142;16.892;2023-12-20T09:59:36;22.60;70.70
6540;DHT22;50344;51.142;16.892;2023-12-20T10:02:02;22.60;71.60
6540;DHT22;50344;51.142;16.892;2023-12-20T10:04:29;22.60;71.00
6540;DHT22;50344;51.142;16.892;2023-12-20T10:06:57;22.60;71.50
6540;DHT22;50344;51.142;16.892;2023-12-20T10:09:22;22.60;71.10
6540;DHT22;50344;51.142;16.892;2023-12-20T10:11:49;22.50;72.10
6540;DHT22;50344;51.142;16.892;2023-12-20T10:14:14;22.50;71.30
6540;DHT22;50344;51.142;16.892;2023-12-20T10:16:41;22.50;71.30
6540;DHT22;50344;51.142;16.892;2023-12-20T10:19:06;22.60;71.10
6540;DHT22;50344;51.142;16.892;2023-12-20T10:21:32;22.50;71.00
6540;DHT22;50344;51.142;16.892;2023-12-20T10:23:57;22.50;71.20
6540;DHT22;50344;51.142;16.892;2023-12-20T10:26:24;22.50;71.60
6540;DHT22;50344;51.142;16.892;2023-12-20T10:28:50;22.50;70.50
6540;DHT22;50344;51.142;16.892;2023-12-20T10:31:29;22.60;70.60
6540;DHT22;50344;51.142;16.892;2023-12-20T10:33:58;22.60;69.30
6540;DHT22;50344;51.142;16.892;2023-12-20T10:36:27;22.50;69.40
6540;DHT22;50344;51.142;16.892;2023-12-20T10:38:53;22.60;69.70
6540;DHT22;50344;51.142;16.892;2023-12-20T10:41:21;22.50;70.30
6540;DHT22;50344;51.142;16.892;2023-12-20T10:43:50;22.60;69.20
6540;DHT22;50344;51.142;16.892;2023-12-20T10:46:15;22.60;68.90
6540;DHT22;50344;51.142;16.892;2023-12-20T10:48:41;22.70;69.10
6540;DHT22;50344;51.142;16.892;2023-12-20T10:51:07;22.60;69.20
6540;DHT22;50344;51.142;16.892;2023-12-20T10:53:33;22.60;68.50
6540;DHT22;50344;51.142;16.892;2023-12-20T10:55:59;22.50;68.50
6540;DHT22;50344;51.142;16.892;2023-12-20T10:58:26;22.60;69.10
6540;DHT22;50344;51.142;16.892;2023-12-20T11:00:55;22.60;69.00
6540;DHT22;50344;51.142;16.892;2023-12-20T11:03:23;22.70;69.10
6540;DHT22;50344;51.142;16.892;2023-12-20T11:05:55;22.70;68.80
6540;DHT22;50344;51.142;16.892;2023-12-20T11:08:27;22.70;68.00
6540;DHT22;50344;51.142;16.892;2023-12-20T11:13:22;22.70;67.50
6540;DHT22;50344;51.142;16.892;2023-12-20T11:15:49;22.70;68.80
6540;DHT22;50344;51.142;16.892;2023-12-20T11:18:15;22.70;68.40
6540;DHT22;50344;51.142;16.892;2023-12-20T11:20:41;22.70;68.50
6540;DHT22;50344;51.142;16.892;2023-12-20T11:23:08;22.80;68.70
6540;DHT22;50344;51.142;16.892;2023-12-20T11:25:45;22.70;68.60
6540;DHT22;50344;51.142;16.892;2023-12-20T11:28:11;22.70;68.40
6540;DHT22;50344;51.142;16.892;2023-12-20T11:33:08;22.70;67.40
6540;DHT22;50344;51.142;16.892;2023-12-20T11:35:34;22.60;68.20
6540;DHT22;50344;51.142;16.892;2023-12-20T11:38:01;22.70;68.20
6540;DHT22;50344;51.142;16.892;2023-12-20T11:40:27;22.70;68.50
6540;DHT22;50344;51.142;16.892;2023-12-20T11:42:53;22.60;68.00
6540;DHT22;50344;51.142;16.892;2023-12-20T11:45:20;22.70;68.60
6540;DHT22;50344;51.142;16.892;2023-12-20T11:47:47;22.60;68.00
6540;DHT22;50344;51.142;16.892;2023-12-20T11:50:15;22.70;67.90
6540;DHT22;50344;51.142;16.892;2023-12-20T11:52:41;22.70;67.80
6540;DHT22;50344;51.142;16.892;2023-12-20T11:55:06;22.60;67.60
6540;DHT22;50344;51.142;16.892;2023-12-20T11:57:32;22.50;65.10
6540;DHT22;50344;51.142;16.892;2023-12-20T11:59:57;22.30;64.40
6540;DHT22;50344;51.142;16.892;2023-12-20T12:02:23;22.50;67.20
6540;DHT22;50344;51.142;16.892;2023-12-20T12:04:49;22.40;67.50
6540;DHT22;50344;51.142;16.892;2023-12-20T12:07:16;22.40;67.30
6540;DHT22;50344;51.142;16.892;2023-12-20T12:09:42;22.40;68.00
6540;DHT22;50344;51.142;16.892;2023-12-20T12:12:08;22.50;67.90
6540;DHT22;50344;51.142;16.892;2023-12-20T12:14:33;22.50;68.40
6540;DHT22;50344;51.142;16.892;2023-12-20T12:17:00;22.50;67.90
6540;DHT22;50344;51.142;16.892;2023-12-20T12:19:26;22.60;68.20
6540;DHT22;50344;51.142;16.892;2023-12-20T12:22:03;22.50;68.60
6540;DHT22;50344;51.142;16.892;2023-12-20T12:24:30;22.50;68.60
6540;DHT22;50344;51.142;16.892;2023-12-20T12:26:57;22.60;69.70
6540;DHT22;50344;51.142;16.892;2023-12-20T12:29:22;22.60;68.90
6540;DHT22;50344;51.142;16.892;2023-12-20T12:31:50;22.60;68.80
6540;DHT22;50344;51.142;16.892;2023-12-20T12:34:15;22.60;69.10
6540;DHT22;50344;51.142;16.892;2023-12-20T12:36:41;22.60;69.30
6540;DHT22;50344;51.142;16.892;2023-12-20T12:39:07;22.60;69.50
6540;DHT22;50344;51.142;16.892;2023-12-20T12:41:33;22.60;70.20
6540;DHT22;50344;51.142;16.892;2023-12-20T12:43:58;22.60;70.30
6540;DHT22;50344;51.142;16.892;2023-12-20T12:46:24;22.60;70.60
6540;DHT22;50344;51.142;16.892;2023-12-20T12:48:49;22.50;70.30
6540;DHT22;50344;51.142;16.892;2023-12-20T12:51:15;22.60;70.40
6540;DHT22;50344;51.142;16.892;2023-12-20T12:53:41;22.60;70.10
6540;DHT22;50344;51.142;16.892;2023-12-20T12:56:07;22.60;69.80
6540;DHT22;50344;51.142;16.892;2023-12-20T12:58:33;22.60;68.60
6540;DHT22;50344;51.142;16.892;2023-12-20T13:00:58;22.60;67.80
6540;DHT22;50344;51.142;16.892;2023-12-20T13:03:24;22.60;67.50
6540;DHT22;50344;51.142;16.892;2023-12-20T13:05:49;22.60;66.80
6540;DHT22;50344;51.142;16.892;2023-12-20T13:08:15;22.60;66.60
6540;DHT22;50344;51.142;16.892;2023-12-20T13:10:41;22.50;66.20
6540;DHT22;50344;51.142;16.892;2023-12-20T13:13:06;22.60;66.20
6540;DHT22;50344;51.142;16.892;2023-12-20T13:15:32;22.60;66.60
6540;DHT22;50344;51.142;16.892;2023-12-20T13:17:57;22.60;66.70
6540;DHT22;50344;51.142;16.892;2023-12-20T13:20:23;22.60;66.30
6540;DHT22;50344;51.142;16.892;2023-12-20T13:22:49;22.60;66.40
6540;DHT22;50344;51.142;16.892;2023-12-20T13:25:14;22.60;66.40
6540;DHT22;50344;51.142;16.892;2023-12-20T13:27:41;22.60;66.30
6540;DHT22;50344;51.142;16.892;2023-12-20T13:30:06;22.60;66.70
6540;DHT22;50344;51.142;16.892;2023-12-20T13:32:32;22.60;66.50
6540;DHT22;50344;51.142;16.892;2023-12-20T13:34:58;22.60;66.80
6540;DHT22;50344;51.142;16.892;2023-12-20T13:37:23;22.70;67.20
6540;DHT22;50344;51.142;16.892;2023-12-20T13:39:49;22.60;66.80
6540;DHT22;50344;51.142;16.892;2023-12-20T13:42:14;22.60;66.90
6540;DHT22;50344;51.142;16.892;2023-12-20T13:44:40;22.60;66.90
6540;DHT22;50344;51.142;16.892;2023-12-20T13:47:05;22.60;67.10
6540;DHT22;50344;51.142;16.892;2023-12-20T13:49:31;22.60;67.00
6540;DHT22;50344;51.142;16.892;2023-12-20T13:51:57;22.50;66.90
6540;DHT22;50344;51.142;16.892;2023-12-20T13:54:24;22.50;67.00
6540;DHT22;50344;51.142;16.892;2023-12-20T13:56:50;22.50;67.00
6540;DHT22;50344;51.142;16.892;2023-12-20T13:59:15;22.60;67.10
6540;DHT22;50344;51.142;16.892;2023-12-20T14:01:41;22.60;67.30
6540;DHT22;50344;51.142;16.892;2023-12-20T14:04:07;22.50;67.10
6540;DHT22;50344;51.142;16.892;2023-12-20T14:06:32;22.50;67.30
6540;DHT22;50344;51.142;16.892;2023-12-20T14:08:58;22.50;67.30
6540;DHT22;50344;51.142;16.892;2023-12-20T14:11:25;22.50;67.10
6540;DHT22;50344;51.142;16.892;2023-12-20T14:13:51;22.50;67.00
6540;DHT22;50344;51.142;16.892;2023-12-20T14:16:17;22.50;67.10
6540;DHT22;50344;51.142;16.892;2023-12-20T14:18:42;22.50;67.30
6540;DHT22;50344;51.142;16.892;2023-12-20T14:21:08;22.50;67.30
6540;DHT22;50344;51.142;16.892;2023-12-20T14:23:33;22.50;67.70
6540;DHT22;50344;51.142;16.892;2023-12-20T14:25:59;22.50;67.50
6540;DHT22;50344;51.142;16.892;2023-12-20T14:28:25;22.50;67.40
6540;DHT22;50344;51.142;16.892;2023-12-20T14:30:50;22.50;67.70
6540;DHT22;50344;51.142;16.892;2023-12-20T14:33:16;22.50;67.60
6540;DHT22;50344;51.142;16.892;2023-12-20T14:35:41;22.50;67.90
6540;DHT22;50344;51.142;16.892;2023-12-20T14:38:07;22.50;67.80
6540;DHT22;50344;51.142;16.892;2023-12-20T14:40:33;22.50;67.90
6540;DHT22;50344;51.142;16.892;2023-12-20T14:42:59;22.50;67.80
6540;DHT22;50344;51.142;16.892;2023-12-20T14:45:25;22.50;67.80
6540;DHT22;50344;51.142;16.892;2023-12-20T14:47:51;22.50;67.90
6540;DHT22;50344;51.142;16.892;2023-12-20T14:50:16;22.50;68.20
6540;DHT22;50344;51.142;16.892;2023-12-20T14:52:45;22.50;67.60
6540;DHT22;50344;51.142;16.892;2023-12-20T14:55:11;22.50;68.30
6540;DHT22;50344;51.142;16.892;2023-12-20T14:57:36;22.40;67.90
6540;DHT22;50344;51.142;16.892;2023-12-20T15:00:02;22.50;68.00
6540;DHT22;50344;51.142;16.892;2023-12-20T15:02:27;22.50;67.80
6540;DHT22;50344;51.142;16.892;2023-12-20T15:04:53;22.50;67.90
6540;DHT22;50344;51.142;16.892;2023-12-20T15:07:19;22.70;68.20
6540;DHT22;50344;51.142;16.892;2023-12-20T15:09:44;22.50;68.10
6540;DHT22;50344;51.142;16.892;2023-12-20T15:12:11;22.50;68.40
6540;DHT22;50344;51.142;16.892;2023-12-20T15:14:37;22.50;68.40
6540;DHT22;50344;51.142;16.892;2023-12-20T15:17:03;22.40;68.60
6540;DHT22;50344;51.142;16.892;2023-12-20T15:19:30;22.40;68.60
6540;DHT22;50344;51.142;16.892;2023-12-20T15:21:56;22.40;68.70
6540;DHT22;50344;51.142;16.892;2023-12-20T15:24:21;22.50;68.90
6540;DHT22;50344;51.142;16.892;2023-12-20T15:26:53;22.50;68.80
6540;DHT22;50344;51.142;16.892;2023-12-20T15:29:19;22.40;68.30